ADDS METAR Data INFO
IDs: Format: Raw Decoded Include TAF

Data at: 0304 UTC 22 Apr 2018

KINK 220253Z AUTO 06016G24KT 10SM CLR 16/03 A3008 RMK AO2 PK WND 05027/0220 SLP158 T01610033 53029
KINK 220153Z AUTO 04016G21KT 10SM CLR 18/02 A3004 RMK AO2 SLP146 T01830022
KINK 220053Z AUTO 36011KT 10SM CLR 24/M06 A2999 RMK AO2 SLP126 T02391061
KINK 212353Z AUTO 34015G19KT 10SM CLR 26/M06 A2998 RMK AO2 SLP120 T02561056 10267 20222 55001
KINK 212253Z AUTO 01011G18KT 10SM CLR 26/M06 A2997 RMK AO2 PK WND 33029/2159 WSHFT 2216 SLP118 T02611061
KINK 212236Z AUTO 32012G18KT 10SM CLR 26/M07 A2997 RMK AO2 PK WND 33029/2159 WSHFT 2216 T02561067
KINK 212153Z AUTO 34006G23KT 10SM CLR 26/M07 A2997 RMK AO2 SLP119 T02561067
KINK 212053Z AUTO 32013G24KT 10SM CLR 26/M06 A2999 RMK AO2 PK WND 31027/2011 SLP124 T02561061 55004
KINK 211953Z AUTO 32013G24KT 10SM CLR 24/M06 A2998 RMK AO2 SLP123 T02441061
KINK 211853Z AUTO 31014G25KT 10SM CLR 23/M04 A2998 RMK AO2 PK WND 31027/1800 SLP121 T02331044
KINK 211753Z AUTO 31015G21KT 10SM CLR 22/M03 A3000 RMK AO2 PK WND 31026/1657 SLP126 T02221028 10222 20106 58004
KINK 211653Z AUTO 31017G27KT 10SM CLR 22/M03 A3001 RMK AO2 PK WND 33031/1617 SLP128 T02171028
KINK 211553Z AUTO 32017G23KT 10SM CLR 20/00 A3001 RMK AO2 SLP131 T02000000
KINK 211453Z AUTO 32011KT 10SM CLR 16/02 A3001 RMK AO2 SLP134 T01610022 51025
KINK 211353Z AUTO 30011KT 10SM CLR 13/02 A3001 RMK AO2 SLP133 T01330017
KINK 211253Z AUTO 30006KT 10SM CLR 11/M01 A2996 RMK AO2 SLP117 T01111011
KINK 211153Z AUTO 29011KT 10SM CLR 12/M08 A2993 RMK AO2 SLP105 T01171078 10144 20089 53016
KINK 211053Z AUTO 28011KT 10SM CLR 11/M02 A2990 RMK AO2 SLP092 T01061017
KINK 210953Z AUTO 27006KT 10SM CLR 10/08 A2990 RMK AO2 SLP093 T01000083
KINK 210853Z AUTO 22005KT 6SM BR CLR 10/09 A2988 RMK AO2 SLP087 T01000094 56010
KINK 210753Z AUTO 18004KT 10SM CLR 11/11 A2989 RMK AO2 SLP087 T01110106
KINK 210653Z AUTO 14004KT 10SM CLR 13/12 A2990 RMK AO2 SLP089 T01330122
KINK 210553Z AUTO 13005KT 10SM CLR 15/12 A2991 RMK AO2 SLP095 T01500122 10239 20150 402670144 51012
KINK 210453Z AUTO 16005KT 10SM CLR 16/12 A2990 RMK AO2 SLP092 T01560122
KINK 210353Z AUTO 13010KT 10SM CLR 17/12 A2989 RMK AO2 SLP088 T01670122
KINK 210253Z AUTO 15011KT 10SM CLR 18/12 A2988 RMK AO2 SLP085 T01830117 53039
KINK 210153Z AUTO 14016G22KT 10SM CLR 19/12 A2983 RMK AO2 PK WND 13029/0057 SLP069 T01940117
KINK 210053Z AUTO 14021G28KT 10SM CLR 22/11 A2978 RMK AO2 PK WND 15032/0002 SLP051 T02170111
KINK 202353Z AUTO 14017G32KT 10SM CLR 24/11 A2975 RMK AO2 PK WND 14039/2303 LTG DSNT S SLP039 T02390111 10267 20239 55005
KINK 202253Z AUTO 13029G41KT 10SM FEW090 26/11 A2971 RMK AO2 PK WND 15044/2155 SLP022 T02560106
KINK 202153Z AUTO 15029G40KT 10SM CLR 27/11 A2972 RMK AO2 PK WND 13042/2109 SLP026 T02670106
KINK 202053Z AUTO 13027G38KT 9SM CLR 26/10 A2977 RMK AO2 PK WND 13043/1954 SLP043 T02610100 56040
KINK 201953Z AUTO 13031G44KT 9SM CLR 26/09 A2979 RMK AO2 PK WND 12044/1953 SLP052 T02610089
KINK 201853Z AUTO 14031G39KT 10SM CLR 25/08 A2983 RMK AO2 PK WND 14039/1853 SLP065 T02500083
KINK 201753Z AUTO 14025G36KT 10SM CLR 23/08 A2990 RMK AO2 PK WND 15036/1746 SLP088 T02330083 10239 20144 58019
KINK 201653Z AUTO 13025G33KT 10SM CLR 22/08 A2993 RMK AO2 PK WND 14037/1624 SLP099 T02220083
KINK 201553Z AUTO 13028G35KT 10SM CLR 21/08 A2993 RMK AO2 PK WND 15038/1532 SLP100 T02060083